Fayette, Ohio
Current Conditions -  °F | °C
As of 10:15 AM on Monday 24 Nov 2014 (Local Time) from KUSE Reporting Station
Haze Haze  
Wind Chill: 55°   Ceiling: 2200
Heat Index: 55°   Visibility: 5mi
Dew Point: 52°   Wind: 23mph
Humidity: 88%   Direction: 210°SSW
Pressure: 29.14"   Gusts: 32mph
Location:  41.67°N, 84.33°W
Report Text: KUSE 241515Z AUTO 21020G28KT 5SM BR OVC022 13/11 A2914 RMK AO2
Loading
Personal Weather Stations






























Interactive Weather Map New forecast layout! Learn more

10-Day Weather Forecast

Advertisements
Track Severe Weather on mobile